sensor_id;sensor_type;location;lat;lon;timestamp;P1;durP1;ratioP1;P2;durP2;ratioP2
35364;SDS011;21464;48.112;11.530;2022-07-05T00:01:59;2.17;;;1.98;;
35364;SDS011;21464;48.112;11.530;2022-07-05T00:04:25;3.20;;;2.90;;
35364;SDS011;21464;48.112;11.530;2022-07-05T00:06:51;3.35;;;3.05;;
35364;SDS011;21464;48.112;11.530;2022-07-05T00:09:36;2.05;;;1.88;;
35364;SDS011;21464;48.112;11.530;2022-07-05T00:12:02;1.90;;;1.60;;
35364;SDS011;21464;48.112;11.530;2022-07-05T00:14:29;1.73;;;1.60;;
35364;SDS011;21464;48.112;11.530;2022-07-05T00:16:56;1.60;;;1.50;;
35364;SDS011;21464;48.112;11.530;2022-07-05T00:19:22;2.35;;;1.60;;
35364;SDS011;21464;48.112;11.530;2022-07-05T00:21:48;1.75;;;1.65;;
35364;SDS011;21464;48.112;11.530;2022-07-05T00:24:14;1.50;;;1.40;;
35364;SDS011;21464;48.112;11.530;2022-07-05T00:26:41;2.08;;;1.80;;
35364;SDS011;21464;48.112;11.530;2022-07-05T00:29:07;1.83;;;1.73;;
35364;SDS011;21464;48.112;11.530;2022-07-05T00:31:33;2.50;;;1.75;;
35364;SDS011;21464;48.112;11.530;2022-07-05T00:33:59;1.90;;;1.80;;
35364;SDS011;21464;48.112;11.530;2022-07-05T00:36:25;2.42;;;2.22;;
35364;SDS011;21464;48.112;11.530;2022-07-05T00:38:52;2.10;;;2.00;;
35364;SDS011;21464;48.112;11.530;2022-07-05T00:41:19;2.75;;;1.75;;
35364;SDS011;21464;48.112;11.530;2022-07-05T00:43:55;2.20;;;2.10;;
35364;SDS011;21464;48.112;11.530;2022-07-05T00:46:24;2.40;;;2.20;;
35364;SDS011;21464;48.112;11.530;2022-07-05T00:48:51;3.33;;;2.30;;
35364;SDS011;21464;48.112;11.530;2022-07-05T00:51:18;2.08;;;1.98;;
35364;SDS011;21464;48.112;11.530;2022-07-05T00:53:44;2.10;;;1.90;;
35364;SDS011;21464;48.112;11.530;2022-07-05T00:56:12;1.80;;;1.67;;
35364;SDS011;21464;48.112;11.530;2022-07-05T00:58:38;2.72;;;1.88;;
35364;SDS011;21464;48.112;11.530;2022-07-05T01:01:05;1.83;;;1.73;;
35364;SDS011;21464;48.112;11.530;2022-07-05T01:03:36;2.15;;;1.98;;
35364;SDS011;21464;48.112;11.530;2022-07-05T01:06:04;2.60;;;2.40;;
35364;SDS011;21464;48.112;11.530;2022-07-05T01:08:32;2.47;;;2.28;;
35364;SDS011;21464;48.112;11.530;2022-07-05T01:10:59;2.55;;;2.20;;
35364;SDS011;21464;48.112;11.530;2022-07-05T01:13:26;2.25;;;2.10;;
35364;SDS011;21464;48.112;11.530;2022-07-05T01:15:52;2.35;;;2.15;;
35364;SDS011;21464;48.112;11.530;2022-07-05T01:18:22;2.20;;;2.00;;
35364;SDS011;21464;48.112;11.530;2022-07-05T01:20:49;2.33;;;2.13;;
35364;SDS011;21464;48.112;11.530;2022-07-05T01:23:15;2.00;;;1.90;;
35364;SDS011;21464;48.112;11.530;2022-07-05T01:25:48;2.53;;;2.13;;
35364;SDS011;21464;48.112;11.530;2022-07-05T01:28:14;2.65;;;2.42;;
35364;SDS011;21464;48.112;11.530;2022-07-05T01:30:41;2.97;;;2.38;;
35364;SDS011;21464;48.112;11.530;2022-07-05T01:33:08;3.38;;;2.35;;
35364;SDS011;21464;48.112;11.530;2022-07-05T01:35:35;2.33;;;2.22;;
35364;SDS011;21464;48.112;11.530;2022-07-05T01:38:02;2.63;;;2.42;;
35364;SDS011;21464;48.112;11.530;2022-07-05T01:40:29;3.22;;;2.72;;
35364;SDS011;21464;48.112;11.530;2022-07-05T01:42:56;2.83;;;2.58;;
35364;SDS011;21464;48.112;11.530;2022-07-05T01:45:22;2.88;;;2.58;;
35364;SDS011;21464;48.112;11.530;2022-07-05T01:48:09;2.78;;;2.58;;
35364;SDS011;21464;48.112;11.530;2022-07-05T01:50:38;2.80;;;2.60;;
35364;SDS011;21464;48.112;11.530;2022-07-05T01:53:11;2.78;;;2.50;;
35364;SDS011;21464;48.112;11.530;2022-07-05T01:55:41;3.15;;;2.67;;
35364;SDS011;21464;48.112;11.530;2022-07-05T01:58:07;2.90;;;2.63;;
35364;SDS011;21464;48.112;11.530;2022-07-05T02:03:10;3.05;;;2.83;;
35364;SDS011;21464;48.112;11.530;2022-07-05T02:05:37;2.80;;;2.60;;
35364;SDS011;21464;48.112;11.530;2022-07-05T02:08:03;3.05;;;2.85;;
35364;SDS011;21464;48.112;11.530;2022-07-05T02:10:30;2.65;;;2.35;;
35364;SDS011;21464;48.112;11.530;2022-07-05T02:12:56;3.00;;;2.80;;
35364;SDS011;21464;48.112;11.530;2022-07-05T02:15:22;3.33;;;2.65;;
35364;SDS011;21464;48.112;11.530;2022-07-05T02:17:49;3.53;;;2.85;;
35364;SDS011;21464;48.112;11.530;2022-07-05T02:20:15;2.95;;;2.75;;
35364;SDS011;21464;48.112;11.530;2022-07-05T02:22:42;3.20;;;2.80;;
35364;SDS011;21464;48.112;11.530;2022-07-05T02:25:08;3.25;;;2.95;;
35364;SDS011;21464;48.112;11.530;2022-07-05T02:27:35;3.05;;;2.80;;
35364;SDS011;21464;48.112;11.530;2022-07-05T02:30:02;2.90;;;2.70;;
35364;SDS011;21464;48.112;11.530;2022-07-05T02:32:35;2.90;;;2.70;;
35364;SDS011;21464;48.112;11.530;2022-07-05T02:35:04;2.80;;;2.60;;
35364;SDS011;21464;48.112;11.530;2022-07-05T02:37:32;2.70;;;2.50;;
35364;SDS011;21464;48.112;11.530;2022-07-05T02:39:58;3.47;;;2.50;;
35364;SDS011;21464;48.112;11.530;2022-07-05T02:42:25;2.80;;;2.60;;
35364;SDS011;21464;48.112;11.530;2022-07-05T02:44:51;2.80;;;2.60;;
35364;SDS011;21464;48.112;11.530;2022-07-05T02:47:19;2.80;;;2.60;;
35364;SDS011;21464;48.112;11.530;2022-07-05T02:49:45;2.80;;;2.60;;
35364;SDS011;21464;48.112;11.530;2022-07-05T02:52:12;2.50;;;2.40;;
35364;SDS011;21464;48.112;11.530;2022-07-05T02:54:38;2.85;;;2.35;;
35364;SDS011;21464;48.112;11.530;2022-07-05T02:57:06;2.80;;;2.10;;
35364;SDS011;21464;48.112;11.530;2022-07-05T02:59:32;2.50;;;2.30;;
35364;SDS011;21464;48.112;11.530;2022-07-05T03:01:59;2.63;;;2.05;;
35364;SDS011;21464;48.112;11.530;2022-07-05T03:04:26;2.90;;;2.17;;
35364;SDS011;21464;48.112;11.530;2022-07-05T03:06:55;2.28;;;2.08;;
35364;SDS011;21464;48.112;11.530;2022-07-05T03:09:25;1.85;;;1.75;;
35364;SDS011;21464;48.112;11.530;2022-07-05T03:11:52;2.28;;;1.77;;
35364;SDS011;21464;48.112;11.530;2022-07-05T03:14:18;2.22;;;2.10;;
35364;SDS011;21464;48.112;11.530;2022-07-05T03:16:47;2.45;;;2.25;;
35364;SDS011;21464;48.112;11.530;2022-07-05T03:19:14;2.05;;;1.90;;
35364;SDS011;21464;48.112;11.530;2022-07-05T03:21:40;2.20;;;2.10;;
35364;SDS011;21464;48.112;11.530;2022-07-05T03:24:08;2.22;;;2.00;;
35364;SDS011;21464;48.112;11.530;2022-07-05T03:26:36;2.40;;;2.20;;
35364;SDS011;21464;48.112;11.530;2022-07-05T03:29:02;3.40;;;2.78;;
35364;SDS011;21464;48.112;11.530;2022-07-05T03:31:29;2.03;;;1.92;;
35364;SDS011;21464;48.112;11.530;2022-07-05T03:33:56;2.85;;;2.17;;
35364;SDS011;21464;48.112;11.530;2022-07-05T03:36:23;2.35;;;2.15;;
35364;SDS011;21464;48.112;11.530;2022-07-05T03:38:50;2.20;;;2.05;;
35364;SDS011;21464;48.112;11.530;2022-07-05T03:41:16;2.25;;;2.10;;
35364;SDS011;21464;48.112;11.530;2022-07-05T03:43:43;2.17;;;1.95;;
35364;SDS011;21464;48.112;11.530;2022-07-05T03:46:10;3.75;;;2.17;;
35364;SDS011;21464;48.112;11.530;2022-07-05T03:48:39;2.22;;;2.03;;
35364;SDS011;21464;48.112;11.530;2022-07-05T03:51:06;2.30;;;2.20;;
35364;SDS011;21464;48.112;11.530;2022-07-05T03:53:33;2.40;;;2.20;;
35364;SDS011;21464;48.112;11.530;2022-07-05T03:56:01;3.05;;;2.17;;
35364;SDS011;21464;48.112;11.530;2022-07-05T03:58:28;2.22;;;2.08;;
35364;SDS011;21464;48.112;11.530;2022-07-05T04:00:56;2.25;;;2.08;;
35364;SDS011;21464;48.112;11.530;2022-07-05T04:03:25;2.15;;;2.00;;
35364;SDS011;21464;48.112;11.530;2022-07-05T04:05:52;3.92;;;2.33;;
35364;SDS011;21464;48.112;11.530;2022-07-05T04:08:18;2.30;;;2.20;;
35364;SDS011;21464;48.112;11.530;2022-07-05T04:10:46;2.53;;;2.10;;
35364;SDS011;21464;48.112;11.530;2022-07-05T04:13:16;2.63;;;2.40;;
35364;SDS011;21464;48.112;11.530;2022-07-05T04:15:42;2.58;;;2.28;;
35364;SDS011;21464;48.112;11.530;2022-07-05T04:18:09;2.40;;;2.20;;
35364;SDS011;21464;48.112;11.530;2022-07-05T04:20:38;3.38;;;2.50;;
35364;SDS011;21464;48.112;11.530;2022-07-05T04:23:07;3.35;;;2.42;;
35364;SDS011;21464;48.112;11.530;2022-07-05T04:25:33;2.50;;;2.30;;
35364;SDS011;21464;48.112;11.530;2022-07-05T04:28:06;2.95;;;2.75;;
35364;SDS011;21464;48.112;11.530;2022-07-05T04:30:35;3.70;;;3.38;;
35364;SDS011;21464;48.112;11.530;2022-07-05T04:33:03;5.07;;;4.40;;
35364;SDS011;21464;48.112;11.530;2022-07-05T04:35:29;3.47;;;3.00;;
35364;SDS011;21464;48.112;11.530;2022-07-05T04:37:56;3.45;;;2.75;;
35364;SDS011;21464;48.112;11.530;2022-07-05T04:40:23;2.30;;;2.20;;
35364;SDS011;21464;48.112;11.530;2022-07-05T04:42:50;3.25;;;2.90;;
35364;SDS011;21464;48.112;11.530;2022-07-05T04:45:17;2.17;;;2.08;;
35364;SDS011;21464;48.112;11.530;2022-07-05T04:47:44;2.78;;;2.50;;
35364;SDS011;21464;48.112;11.530;2022-07-05T04:50:10;3.17;;;2.80;;
35364;SDS011;21464;48.112;11.530;2022-07-05T04:52:37;3.17;;;2.90;;
35364;SDS011;21464;48.112;11.530;2022-07-05T04:55:03;2.45;;;2.33;;
35364;SDS011;21464;48.112;11.530;2022-07-05T04:57:36;3.03;;;2.83;;
35364;SDS011;21464;48.112;11.530;2022-07-05T05:00:03;3.00;;;2.80;;
35364;SDS011;21464;48.112;11.530;2022-07-05T05:02:30;2.83;;;2.67;;
35364;SDS011;21464;48.112;11.530;2022-07-05T05:04:56;2.20;;;2.10;;
35364;SDS011;21464;48.112;11.530;2022-07-05T05:07:22;2.65;;;2.30;;
35364;SDS011;21464;48.112;11.530;2022-07-05T05:09:49;2.78;;;2.58;;
35364;SDS011;21464;48.112;11.530;2022-07-05T05:12:15;2.97;;;2.35;;
35364;SDS011;21464;48.112;11.530;2022-07-05T05:14:41;2.70;;;2.50;;
35364;SDS011;21464;48.112;11.530;2022-07-05T05:17:07;7.85;;;6.18;;
35364;SDS011;21464;48.112;11.530;2022-07-05T05:19:34;2.88;;;2.67;;
35364;SDS011;21464;48.112;11.530;2022-07-05T05:22:00;4.97;;;4.45;;
35364;SDS011;21464;48.112;11.530;2022-07-05T05:24:26;4.05;;;2.88;;
35364;SDS011;21464;48.112;11.530;2022-07-05T05:26:52;2.92;;;2.38;;
35364;SDS011;21464;48.112;11.530;2022-07-05T05:29:19;2.90;;;2.60;;
35364;SDS011;21464;48.112;11.530;2022-07-05T05:31:46;3.10;;;2.88;;
35364;SDS011;21464;48.112;11.530;2022-07-05T05:34:13;2.88;;;2.67;;
35364;SDS011;21464;48.112;11.530;2022-07-05T05:36:39;3.53;;;2.95;;
35364;SDS011;21464;48.112;11.530;2022-07-05T05:39:05;2.97;;;2.78;;
35364;SDS011;21464;48.112;11.530;2022-07-05T05:41:32;3.97;;;3.38;;
35364;SDS011;21464;48.112;11.530;2022-07-05T05:43:58;4.75;;;3.33;;
35364;SDS011;21464;48.112;11.530;2022-07-05T05:46:24;4.57;;;3.20;;
35364;SDS011;21464;48.112;11.530;2022-07-05T05:48:50;3.90;;;3.20;;
35364;SDS011;21464;48.112;11.530;2022-07-05T05:51:16;3.85;;;3.55;;
35364;SDS011;21464;48.112;11.530;2022-07-05T05:53:43;4.75;;;3.63;;
35364;SDS011;21464;48.112;11.530;2022-07-05T05:56:12;4.25;;;3.85;;
35364;SDS011;21464;48.112;11.530;2022-07-05T05:58:38;4.47;;;4.03;;
35364;SDS011;21464;48.112;11.530;2022-07-05T06:01:05;4.90;;;4.55;;
35364;SDS011;21464;48.112;11.530;2022-07-05T06:03:31;5.70;;;5.10;;
35364;SDS011;21464;48.112;11.530;2022-07-05T06:05:57;5.43;;;4.93;;
35364;SDS011;21464;48.112;11.530;2022-07-05T06:08:23;5.50;;;5.10;;
35364;SDS011;21464;48.112;11.530;2022-07-05T06:10:50;5.25;;;4.85;;
35364;SDS011;21464;48.112;11.530;2022-07-05T06:13:16;5.35;;;4.75;;
35364;SDS011;21464;48.112;11.530;2022-07-05T06:15:42;7.03;;;5.32;;
35364;SDS011;21464;48.112;11.530;2022-07-05T06:18:09;6.15;;;5.55;;
35364;SDS011;21464;48.112;11.530;2022-07-05T06:20:36;6.35;;;5.57;;
35364;SDS011;21464;48.112;11.530;2022-07-05T06:23:04;6.30;;;5.70;;
35364;SDS011;21464;48.112;11.530;2022-07-05T06:25:31;6.05;;;5.50;;
35364;SDS011;21464;48.112;11.530;2022-07-05T06:28:01;6.10;;;5.50;;
35364;SDS011;21464;48.112;11.530;2022-07-05T06:30:31;6.30;;;5.80;;
35364;SDS011;21464;48.112;11.530;2022-07-05T06:32:58;6.07;;;5.53;;
35364;SDS011;21464;48.112;11.530;2022-07-05T06:35:25;6.00;;;5.50;;
35364;SDS011;21464;48.112;11.530;2022-07-05T06:37:57;6.22;;;5.50;;
35364;SDS011;21464;48.112;11.530;2022-07-05T06:40:26;6.53;;;5.80;;
35364;SDS011;21464;48.112;11.530;2022-07-05T06:42:54;6.13;;;5.35;;
35364;SDS011;21464;48.112;11.530;2022-07-05T06:45:27;6.70;;;6.10;;
35364;SDS011;21464;48.112;11.530;2022-07-05T06:48:01;6.95;;;5.43;;
35364;SDS011;21464;48.112;11.530;2022-07-05T06:50:29;6.65;;;5.60;;
35364;SDS011;21464;48.112;11.530;2022-07-05T06:52:56;6.90;;;6.30;;
35364;SDS011;21464;48.112;11.530;2022-07-05T06:55:23;6.85;;;5.40;;
35364;SDS011;21464;48.112;11.530;2022-07-05T06:57:56;5.88;;;5.45;;
35364;SDS011;21464;48.112;11.530;2022-07-05T07:00:26;6.57;;;5.35;;
35364;SDS011;21464;48.112;11.530;2022-07-05T07:02:53;6.57;;;5.97;;
35364;SDS011;21464;48.112;11.530;2022-07-05T07:05:19;5.75;;;5.25;;
35364;SDS011;21464;48.112;11.530;2022-07-05T07:07:45;6.22;;;5.25;;
35364;SDS011;21464;48.112;11.530;2022-07-05T07:10:30;5.60;;;5.10;;
35364;SDS011;21464;48.112;11.530;2022-07-05T07:12:57;6.25;;;5.57;;
35364;SDS011;21464;48.112;11.530;2022-07-05T07:15:24;5.80;;;5.22;;
35364;SDS011;21464;48.112;11.530;2022-07-05T07:17:50;5.28;;;4.88;;
35364;SDS011;21464;48.112;11.530;2022-07-05T07:20:17;6.50;;;4.82;;
35364;SDS011;21464;48.112;11.530;2022-07-05T07:22:43;5.68;;;5.05;;
35364;SDS011;21464;48.112;11.530;2022-07-05T07:25:09;5.35;;;4.78;;
35364;SDS011;21464;48.112;11.530;2022-07-05T07:27:41;5.55;;;5.05;;
35364;SDS011;21464;48.112;11.530;2022-07-05T07:30:11;7.15;;;4.90;;
35364;SDS011;21464;48.112;11.530;2022-07-05T07:32:38;5.28;;;4.78;;
35364;SDS011;21464;48.112;11.530;2022-07-05T07:35:05;8.43;;;5.18;;
35364;SDS011;21464;48.112;11.530;2022-07-05T07:37:31;4.90;;;4.50;;
35364;SDS011;21464;48.112;11.530;2022-07-05T07:39:58;5.32;;;4.75;;
35364;SDS011;21464;48.112;11.530;2022-07-05T07:42:24;5.55;;;5.10;;
35364;SDS011;21464;48.112;11.530;2022-07-05T07:44:50;5.50;;;5.10;;
35364;SDS011;21464;48.112;11.530;2022-07-05T07:47:17;7.07;;;4.97;;
35364;SDS011;21464;48.112;11.530;2022-07-05T07:49:43;5.60;;;5.10;;
35364;SDS011;21464;48.112;11.530;2022-07-05T07:52:09;5.43;;;4.90;;
35364;SDS011;21464;48.112;11.530;2022-07-05T07:54:35;5.85;;;5.30;;
35364;SDS011;21464;48.112;11.530;2022-07-05T07:57:02;5.22;;;4.82;;
35364;SDS011;21464;48.112;11.530;2022-07-05T07:59:33;4.88;;;4.53;;
35364;SDS011;21464;48.112;11.530;2022-07-05T08:02:00;5.32;;;4.82;;
35364;SDS011;21464;48.112;11.530;2022-07-05T08:04:27;8.52;;;6.72;;
35364;SDS011;21464;48.112;11.530;2022-07-05T08:06:53;6.70;;;6.10;;
35364;SDS011;21464;48.112;11.530;2022-07-05T08:09:19;4.75;;;4.00;;
35364;SDS011;21464;48.112;11.530;2022-07-05T08:11:46;4.70;;;4.30;;
35364;SDS011;21464;48.112;11.530;2022-07-05T08:14:15;3.83;;;3.33;;
35364;SDS011;21464;48.112;11.530;2022-07-05T08:16:42;2.90;;;2.60;;
35364;SDS011;21464;48.112;11.530;2022-07-05T08:19:09;2.72;;;2.60;;
35364;SDS011;21464;48.112;11.530;2022-07-05T08:21:54;2.30;;;2.10;;
35364;SDS011;21464;48.112;11.530;2022-07-05T08:24:20;3.35;;;2.72;;
35364;SDS011;21464;48.112;11.530;2022-07-05T08:26:46;2.75;;;2.30;;
35364;SDS011;21464;48.112;11.530;2022-07-05T08:29:13;2.00;;;1.90;;
35364;SDS011;21464;48.112;11.530;2022-07-05T08:31:41;2.33;;;2.10;;
35364;SDS011;21464;48.112;11.530;2022-07-05T08:34:09;2.28;;;2.13;;
35364;SDS011;21464;48.112;11.530;2022-07-05T08:36:36;3.15;;;2.10;;
35364;SDS011;21464;48.112;11.530;2022-07-05T08:39:03;3.60;;;2.17;;
35364;SDS011;21464;48.112;11.530;2022-07-05T08:41:29;2.47;;;2.28;;
35364;SDS011;21464;48.112;11.530;2022-07-05T08:43:58;3.03;;;2.10;;
35364;SDS011;21464;48.112;11.530;2022-07-05T08:46:26;1.80;;;1.70;;
35364;SDS011;21464;48.112;11.530;2022-07-05T08:49:00;3.05;;;2.63;;
35364;SDS011;21464;48.112;11.530;2022-07-05T08:51:27;2.17;;;1.80;;
35364;SDS011;21464;48.112;11.530;2022-07-05T08:53:54;2.17;;;1.77;;
35364;SDS011;21464;48.112;11.530;2022-07-05T08:56:23;4.13;;;1.80;;
35364;SDS011;21464;48.112;11.530;2022-07-05T08:58:49;3.30;;;1.90;;
35364;SDS011;21464;48.112;11.530;2022-07-05T09:01:16;1.65;;;1.50;;
35364;SDS011;21464;48.112;11.530;2022-07-05T09:03:43;2.78;;;1.90;;
35364;SDS011;21464;48.112;11.530;2022-07-05T09:06:11;1.80;;;1.70;;
35364;SDS011;21464;48.112;11.530;2022-07-05T09:08:39;3.15;;;2.05;;
35364;SDS011;21464;48.112;11.530;2022-07-05T09:11:07;2.33;;;2.10;;
35364;SDS011;21464;48.112;11.530;2022-07-05T09:13:36;2.92;;;2.40;;
35364;SDS011;21464;48.112;11.530;2022-07-05T09:16:03;2.47;;;2.30;;
35364;SDS011;21464;48.112;11.530;2022-07-05T09:21:19;2.72;;;1.60;;
35364;SDS011;21464;48.112;11.530;2022-07-05T09:23:57;3.35;;;1.80;;
35364;SDS011;21464;48.112;11.530;2022-07-05T09:26:43;2.05;;;1.60;;
35364;SDS011;21464;48.112;11.530;2022-07-05T09:29:11;2.65;;;1.85;;
35364;SDS011;21464;48.112;11.530;2022-07-05T09:31:43;3.30;;;2.25;;
35364;SDS011;21464;48.112;11.530;2022-07-05T09:34:15;3.00;;;2.80;;
35364;SDS011;21464;48.112;11.530;2022-07-05T09:36:55;2.95;;;2.28;;
35364;SDS011;21464;48.112;11.530;2022-07-05T09:42:16;2.58;;;1.73;;
35364;SDS011;21464;48.112;11.530;2022-07-05T09:47:19;2.75;;;2.10;;
35364;SDS011;21464;48.112;11.530;2022-07-05T09:49:47;2.38;;;1.75;;
35364;SDS011;21464;48.112;11.530;2022-07-05T09:52:32;2.60;;;2.20;;
35364;SDS011;21464;48.112;11.530;2022-07-05T09:55:04;3.10;;;1.88;;
35364;SDS011;21464;48.112;11.530;2022-07-05T09:57:32;2.58;;;2.10;;
35364;SDS011;21464;48.112;11.530;2022-07-05T10:00:00;2.92;;;1.90;;
35364;SDS011;21464;48.112;11.530;2022-07-05T10:02:47;2.83;;;2.38;;
35364;SDS011;21464;48.112;11.530;2022-07-05T10:05:16;2.80;;;1.80;;
35364;SDS011;21464;48.112;11.530;2022-07-05T10:07:43;2.85;;;2.15;;
35364;SDS011;21464;48.112;11.530;2022-07-05T10:10:15;3.83;;;2.00;;
35364;SDS011;21464;48.112;11.530;2022-07-05T10:12:43;2.88;;;2.00;;
35364;SDS011;21464;48.112;11.530;2022-07-05T10:15:11;2.10;;;1.98;;
35364;SDS011;21464;48.112;11.530;2022-07-05T10:17:40;3.45;;;2.10;;
35364;SDS011;21464;48.112;11.530;2022-07-05T10:20:12;1.90;;;1.80;;
35364;SDS011;21464;48.112;11.530;2022-07-05T10:22:44;4.50;;;1.90;;
35364;SDS011;21464;48.112;11.530;2022-07-05T10:25:10;2.55;;;1.80;;
35364;SDS011;21464;48.112;11.530;2022-07-05T10:27:37;2.95;;;2.10;;
35364;SDS011;21464;48.112;11.530;2022-07-05T10:30:04;3.33;;;1.80;;
35364;SDS011;21464;48.112;11.530;2022-07-05T10:32:30;6.13;;;3.60;;
35364;SDS011;21464;48.112;11.530;2022-07-05T10:34:59;2.75;;;1.70;;
35364;SDS011;21464;48.112;11.530;2022-07-05T10:37:27;1.85;;;1.73;;
35364;SDS011;21464;48.112;11.530;2022-07-05T10:39:57;2.55;;;1.60;;
35364;SDS011;21464;48.112;11.530;2022-07-05T10:42:25;1.73;;;1.63;;
35364;SDS011;21464;48.112;11.530;2022-07-05T10:44:54;1.77;;;1.67;;
35364;SDS011;21464;48.112;11.530;2022-07-05T10:47:20;2.45;;;1.92;;
35364;SDS011;21464;48.112;11.530;2022-07-05T10:50:00;2.00;;;1.88;;
35364;SDS011;21464;48.112;11.530;2022-07-05T10:52:28;2.58;;;1.95;;
35364;SDS011;21464;48.112;11.530;2022-07-05T11:00:44;2.17;;;1.98;;
35364;SDS011;21464;48.112;11.530;2022-07-05T11:06:01;2.70;;;1.73;;
35364;SDS011;21464;48.112;11.530;2022-07-05T11:08:29;1.90;;;1.80;;
35364;SDS011;21464;48.112;11.530;2022-07-05T11:11:09;1.80;;;1.70;;
35364;SDS011;21464;48.112;11.530;2022-07-05T11:13:37;2.10;;;1.65;;
35364;SDS011;21464;48.112;11.530;2022-07-05T11:16:19;1.63;;;1.52;;
35364;SDS011;21464;48.112;11.530;2022-07-05T11:19:05;2.13;;;1.92;;
35364;SDS011;21464;48.112;11.530;2022-07-05T11:21:33;3.25;;;1.73;;
35364;SDS011;21464;48.112;11.530;2022-07-05T11:24:19;1.80;;;1.70;;
35364;SDS011;21464;48.112;11.530;2022-07-05T11:26:48;2.60;;;1.70;;
35364;SDS011;21464;48.112;11.530;2022-07-05T11:34:37;1.80;;;1.50;;
35364;SDS011;21464;48.112;11.530;2022-07-05T11:39:42;1.48;;;1.40;;
35364;SDS011;21464;48.112;11.530;2022-07-05T11:42:09;1.45;;;1.35;;
35364;SDS011;21464;48.112;11.530;2022-07-05T11:44:36;2.30;;;1.70;;
35364;SDS011;21464;48.112;11.530;2022-07-05T11:47:06;1.38;;;1.38;;
35364;SDS011;21464;48.112;11.530;2022-07-05T11:49:32;1.30;;;1.20;;
35364;SDS011;21464;48.112;11.530;2022-07-05T11:51:59;2.10;;;1.90;;
35364;SDS011;21464;48.112;11.530;2022-07-05T11:54:27;1.90;;;1.77;;
35364;SDS011;21464;48.112;11.530;2022-07-05T11:56:54;2.17;;;1.90;;
35364;SDS011;21464;48.112;11.530;2022-07-05T11:59:23;1.80;;;1.70;;
35364;SDS011;21464;48.112;11.530;2022-07-05T12:01:50;2.08;;;1.60;;
35364;SDS011;21464;48.112;11.530;2022-07-05T12:06:51;1.63;;;1.52;;
35364;SDS011;21464;48.112;11.530;2022-07-05T12:09:22;2.78;;;1.60;;
35364;SDS011;21464;48.112;11.530;2022-07-05T12:11:52;3.55;;;1.73;;
35364;SDS011;21464;48.112;11.530;2022-07-05T12:14:46;1.50;;;1.40;;
35364;SDS011;21464;48.112;11.530;2022-07-05T12:17:16;3.15;;;1.80;;
35364;SDS011;21464;48.112;11.530;2022-07-05T12:19:44;1.60;;;1.50;;
35364;SDS011;21464;48.112;11.530;2022-07-05T12:22:11;1.40;;;1.30;;
35364;SDS011;21464;48.112;11.530;2022-07-05T12:24:38;1.73;;;1.60;;
35364;SDS011;21464;48.112;11.530;2022-07-05T12:27:05;1.73;;;1.60;;
35364;SDS011;21464;48.112;11.530;2022-07-05T12:29:31;2.08;;;1.70;;
35364;SDS011;21464;48.112;11.530;2022-07-05T12:31:58;1.95;;;1.50;;
35364;SDS011;21464;48.112;11.530;2022-07-05T12:34:29;1.85;;;1.75;;
35364;SDS011;21464;48.112;11.530;2022-07-05T12:36:56;1.52;;;1.40;;
35364;SDS011;21464;48.112;11.530;2022-07-05T12:39:24;1.92;;;1.67;;
35364;SDS011;21464;48.112;11.530;2022-07-05T12:41:50;2.22;;;1.73;;
35364;SDS011;21464;48.112;11.530;2022-07-05T12:44:19;2.85;;;1.90;;
35364;SDS011;21464;48.112;11.530;2022-07-05T12:46:46;2.72;;;1.50;;
35364;SDS011;21464;48.112;11.530;2022-07-05T12:49:15;1.95;;;1.85;;
35364;SDS011;21464;48.112;11.530;2022-07-05T12:51:41;1.98;;;1.88;;
35364;SDS011;21464;48.112;11.530;2022-07-05T12:54:21;2.67;;;1.90;;
35364;SDS011;21464;48.112;11.530;2022-07-05T12:57:07;2.85;;;1.77;;
35364;SDS011;21464;48.112;11.530;2022-07-05T12:59:59;1.67;;;1.48;;
35364;SDS011;21464;48.112;11.530;2022-07-05T13:02:39;1.92;;;1.60;;
35364;SDS011;21464;48.112;11.530;2022-07-05T13:05:07;1.58;;;1.48;;
35364;SDS011;21464;48.112;11.530;2022-07-05T13:07:41;2.53;;;1.63;;
35364;SDS011;21464;48.112;11.530;2022-07-05T13:12:41;1.67;;;1.40;;
35364;SDS011;21464;48.112;11.530;2022-07-05T13:15:07;1.85;;;1.40;;
35364;SDS011;21464;48.112;11.530;2022-07-05T13:17:34;2.30;;;1.67;;
35364;SDS011;21464;48.112;11.530;2022-07-05T13:20:00;1.55;;;1.45;;
35364;SDS011;21464;48.112;11.530;2022-07-05T13:22:29;1.50;;;1.40;;
35364;SDS011;21464;48.112;11.530;2022-07-05T13:24:55;2.08;;;1.70;;
35364;SDS011;21464;48.112;11.530;2022-07-05T13:27:21;1.65;;;1.55;;
35364;SDS011;21464;48.112;11.530;2022-07-05T13:29:47;1.90;;;1.67;;
35364;SDS011;21464;48.112;11.530;2022-07-05T13:32:14;1.58;;;1.48;;
35364;SDS011;21464;48.112;11.530;2022-07-05T13:34:45;4.55;;;1.50;;
35364;SDS011;21464;48.112;11.530;2022-07-05T13:37:12;1.58;;;1.42;;
35364;SDS011;21464;48.112;11.530;2022-07-05T13:39:38;1.70;;;1.60;;
35364;SDS011;21464;48.112;11.530;2022-07-05T13:42:06;1.70;;;1.60;;
35364;SDS011;21464;48.112;11.530;2022-07-05T13:44:32;1.45;;;1.35;;
35364;SDS011;21464;48.112;11.530;2022-07-05T13:46:58;2.42;;;1.35;;
35364;SDS011;21464;48.112;11.530;2022-07-05T13:49:25;1.50;;;1.30;;
35364;SDS011;21464;48.112;11.530;2022-07-05T13:51:51;2.35;;;1.35;;
35364;SDS011;21464;48.112;11.530;2022-07-05T13:54:17;1.88;;;1.60;;
35364;SDS011;21464;48.112;11.530;2022-07-05T13:56:43;1.52;;;1.42;;
35364;SDS011;21464;48.112;11.530;2022-07-05T13:59:10;1.67;;;1.48;;
35364;SDS011;21464;48.112;11.530;2022-07-05T14:01:36;1.67;;;1.40;;
35364;SDS011;21464;48.112;11.530;2022-07-05T14:04:02;1.20;;;1.20;;
35364;SDS011;21464;48.112;11.530;2022-07-05T14:06:29;1.70;;;1.60;;
35364;SDS011;21464;48.112;11.530;2022-07-05T14:08:56;1.60;;;1.50;;
35364;SDS011;21464;48.112;11.530;2022-07-05T14:11:22;2.58;;;1.50;;
35364;SDS011;21464;48.112;11.530;2022-07-05T14:13:55;1.55;;;1.30;;
35364;SDS011;21464;48.112;11.530;2022-07-05T14:16:22;1.67;;;1.42;;
35364;SDS011;21464;48.112;11.530;2022-07-05T14:18:48;1.55;;;1.55;;
35364;SDS011;21464;48.112;11.530;2022-07-05T14:21:16;2.40;;;2.20;;
35364;SDS011;21464;48.112;11.530;2022-07-05T14:23:43;1.60;;;1.50;;
35364;SDS011;21464;48.112;11.530;2022-07-05T14:26:13;2.33;;;1.70;;
35364;SDS011;21464;48.112;11.530;2022-07-05T14:28:42;1.30;;;1.30;;
35364;SDS011;21464;48.112;11.530;2022-07-05T14:31:08;2.28;;;1.98;;
35364;SDS011;21464;48.112;11.530;2022-07-05T14:33:35;1.52;;;1.42;;
35364;SDS011;21464;48.112;11.530;2022-07-05T14:36:03;2.10;;;1.92;;
35364;SDS011;21464;48.112;11.530;2022-07-05T14:38:30;1.35;;;1.20;;
35364;SDS011;21464;48.112;11.530;2022-07-05T14:40:56;1.88;;;1.20;;
35364;SDS011;21464;48.112;11.530;2022-07-05T14:43:23;1.63;;;1.30;;
35364;SDS011;21464;48.112;11.530;2022-07-05T14:45:49;1.30;;;1.20;;
35364;SDS011;21464;48.112;11.530;2022-07-05T14:48:16;1.10;;;1.10;;
35364;SDS011;21464;48.112;11.530;2022-07-05T14:50:42;1.98;;;1.48;;
35364;SDS011;21464;48.112;11.530;2022-07-05T14:53:12;1.35;;;1.20;;
35364;SDS011;21464;48.112;11.530;2022-07-05T14:55:39;1.60;;;1.20;;
35364;SDS011;21464;48.112;11.530;2022-07-05T14:58:05;1.48;;;1.38;;
35364;SDS011;21464;48.112;11.530;2022-07-05T15:00:32;1.40;;;1.30;;
35364;SDS011;21464;48.112;11.530;2022-07-05T15:02:58;1.30;;;1.20;;
35364;SDS011;21464;48.112;11.530;2022-07-05T15:05:24;1.48;;;1.35;;
35364;SDS011;21464;48.112;11.530;2022-07-05T15:07:50;3.28;;;2.38;;
35364;SDS011;21464;48.112;11.530;2022-07-05T15:10:17;1.75;;;1.42;;
35364;SDS011;21464;48.112;11.530;2022-07-05T15:12:43;2.25;;;1.40;;